createdAt,value
2022-08-19T00:01:59.035Z,97417.72
2022-08-19T00:04:38.176Z,97415.78
2022-08-19T00:07:08.794Z,97424.53
2022-08-19T00:09:37.905Z,97429.56
2022-08-19T00:12:07.106Z,97425.81
2022-08-19T00:14:36.465Z,97431.09
2022-08-19T00:17:07.239Z,97428.63
2022-08-19T00:19:36.947Z,97427.22
2022-08-19T00:22:07.973Z,97441.66
2022-08-19T00:24:38.614Z,97439.59
2022-08-19T00:27:25.688Z,97446.16
2022-08-19T00:29:56.589Z,97442.38
2022-08-19T00:32:26.458Z,97449.59
2022-08-19T00:34:56.434Z,97448.50
2022-08-19T00:37:28.190Z,97453.91
2022-08-19T00:39:58.013Z,97454.88
2022-08-19T00:42:30.359Z,97460.31
2022-08-19T00:44:59.479Z,97460.88
2022-08-19T00:47:28.945Z,97465.34
2022-08-19T00:50:02.072Z,97463.94
2022-08-19T00:52:41.966Z,97465.72
2022-08-19T00:55:13.996Z,97466.16
2022-08-19T00:57:48.657Z,97473.09
2022-08-19T01:00:21.434Z,97470.59
2022-08-19T01:03:09.155Z,97472.81
2022-08-19T01:05:39.837Z,97472.56
2022-08-19T01:08:09.819Z,97478.09
2022-08-19T01:10:45.531Z,97477.28
2022-08-19T01:13:17.827Z,97482.00
2022-08-19T01:16:05.465Z,97484.22
2022-08-19T01:18:38.443Z,97485.03
2022-08-19T01:21:34.633Z,97488.41
2022-08-19T01:24:04.037Z,97487.28
2022-08-19T01:26:45.987Z,97494.38
2022-08-19T01:29:15.923Z,97495.88
2022-08-19T01:31:44.919Z,97497.28
2022-08-19T01:34:14.101Z,97499.78
2022-08-19T01:36:49.310Z,97506.91
2022-08-19T01:39:26.101Z,97514.53
2022-08-19T01:41:56.348Z,97523.41
2022-08-19T01:44:26.211Z,97521.88
2022-08-19T01:46:55.248Z,97511.63
2022-08-19T01:49:27.306Z,97517.28
2022-08-19T01:51:57.503Z,97516.19
2022-08-19T01:54:29.688Z,97520.91
2022-08-19T01:57:09.097Z,97526.88
2022-08-19T01:59:38.450Z,97531.06
2022-08-19T02:02:11.060Z,97524.81
2022-08-19T02:04:41.020Z,97524.81
2022-08-19T08:50:06.903Z,97514.00
2022-08-19T08:52:44.172Z,97494.56
2022-08-19T08:55:25.135Z,97501.81
2022-08-19T08:57:56.855Z,97500.25
2022-08-19T09:00:55.226Z,97507.91
2022-08-19T09:03:28.062Z,97492.03
2022-08-19T09:06:12.150Z,97493.81
2022-08-19T09:08:56.672Z,97493.13
2022-08-19T09:12:07.514Z,97491.50
2022-08-19T09:15:12.654Z,97496.47
2022-08-19T09:17:42.087Z,97487.63
2022-08-19T09:20:26.237Z,97482.13
2022-08-19T09:22:56.116Z,97479.56
2022-08-19T09:25:29.478Z,97468.69
2022-08-19T09:28:05.640Z,97466.91
2022-08-19T09:30:42.267Z,97469.06
2022-08-19T09:33:17.774Z,97468.97
2022-08-19T09:35:49.933Z,97459.75
2022-08-19T09:38:26.307Z,97460.84
2022-08-19T09:41:02.156Z,97458.75
2022-08-19T09:43:44.607Z,97448.09
2022-08-19T09:46:27.141Z,97442.97
2022-08-19T09:48:59.414Z,97439.28
2022-08-19T09:51:39.224Z,97450.22
2022-08-19T09:54:16.872Z,97443.25
2022-08-19T09:56:57.061Z,97433.66
2022-08-19T09:59:26.233Z,97433.47
2022-08-19T10:01:56.127Z,97433.59
2022-08-19T10:04:52.078Z,97423.94
2022-08-19T10:07:22.315Z,97427.03
2022-08-19T10:09:58.756Z,97414.44
2022-08-19T10:12:27.766Z,97419.47
2022-08-19T10:14:57.769Z,97407.63
2022-08-19T10:17:31.617Z,97405.13
2022-08-19T10:20:04.460Z,97403.31
2022-08-19T10:22:33.803Z,97402.91
2022-08-19T10:25:02.820Z,97393.66
2022-08-19T10:27:33.179Z,97401.38
2022-08-19T10:30:09.981Z,97394.66
2022-08-19T10:32:40.522Z,97395.38
2022-08-19T10:35:22.035Z,97391.97
2022-08-19T10:38:00.184Z,97391.13
2022-08-19T10:40:31.798Z,97386.06
2022-08-19T10:43:01.112Z,97380.00
2022-08-19T10:45:30.164Z,97383.34
2022-08-19T10:47:59.310Z,97383.97
2022-08-19T10:50:47.794Z,97384.81
2022-08-19T10:53:17.925Z,97367.63
2022-08-19T10:56:05.859Z,97361.91
2022-08-19T10:58:34.805Z,97375.84
2022-08-19T11:01:04.161Z,97370.63
2022-08-19T11:03:33.804Z,97365.47
2022-08-19T11:06:04.717Z,97357.31
2022-08-19T11:08:34.587Z,97359.09
2022-08-19T11:11:05.243Z,97354.94
2022-08-19T11:13:39.186Z,97359.78
2022-08-19T11:16:15.386Z,97354.75
2022-08-19T11:18:48.235Z,97354.22
2022-08-19T11:21:24.236Z,97345.31
2022-08-19T11:23:56.809Z,97350.69
2022-08-19T11:26:27.536Z,97340.13
2022-08-19T11:28:57.424Z,97340.13
2022-08-19T11:31:29.847Z,97340.78
2022-08-19T11:34:03.568Z,97338.13
2022-08-19T11:36:34.762Z,97335.53
2022-08-19T11:39:06.047Z,97334.81
2022-08-19T11:41:35.240Z,97333.34
2022-08-19T11:44:06.519Z,97326.19
2022-08-19T11:46:36.846Z,97322.50
2022-08-19T11:49:10.722Z,97328.41
2022-08-19T11:51:45.224Z,97325.56
2022-08-19T11:54:16.656Z,97316.56
2022-08-19T11:56:48.082Z,97309.25
2022-08-19T11:59:18.019Z,97305.97
2022-08-19T12:01:47.202Z,97313.56
2022-08-19T12:04:16.818Z,97309.72
2022-08-19T12:06:47.715Z,97302.38
2022-08-19T12:09:17.624Z,97306.81
2022-08-19T12:11:46.587Z,97306.16
2022-08-19T12:14:16.871Z,97303.84
2022-08-19T12:16:52.386Z,97309.72
2022-08-19T12:19:22.655Z,97307.22
2022-08-19T12:21:53.403Z,97307.41
2022-08-19T12:24:25.043Z,97303.84
2022-08-19T12:26:55.531Z,97308.31
2022-08-19T12:29:38.911Z,97309.38
2022-08-19T12:32:08.122Z,97308.31
2022-08-19T12:34:39.898Z,97302.63
2022-08-19T12:37:09.466Z,97306.28
2022-08-19T12:39:43.416Z,97316.91
2022-08-19T12:42:14.982Z,97308.31
2022-08-19T12:44:45.849Z,97314.31
2022-08-19T12:47:19.619Z,97304.63
2022-08-19T12:49:53.435Z,97306.25
2022-08-19T12:52:28.968Z,97305.59
2022-08-19T12:54:59.462Z,97306.66
2022-08-19T12:57:32.727Z,97305.69
2022-08-19T13:00:22.650Z,97309.13
2022-08-19T13:02:54.111Z,97312.66
2022-08-19T13:05:26.775Z,97308.56
2022-08-19T13:07:59.097Z,97318.06
2022-08-19T13:10:37.672Z,97307.59
2022-08-19T13:13:09.352Z,97315.28
2022-08-19T13:15:47.163Z,97312.19
2022-08-19T13:18:20.948Z,97311.00
2022-08-19T13:20:52.617Z,97320.97
2022-08-19T13:23:22.103Z,97328.75
2022-08-19T13:26:02.859Z,97330.63
2022-08-19T13:28:49.983Z,97327.28
2022-08-19T13:31:39.683Z,97333.06
2022-08-19T13:34:09.893Z,97325.28
2022-08-19T13:36:40.295Z,97334.94
2022-08-19T13:39:11.521Z,97338.91
2022-08-19T13:41:50.109Z,97327.94
2022-08-19T13:44:23.020Z,97338.56
2022-08-19T13:46:54.697Z,97337.72
2022-08-19T13:49:25.038Z,97334.88
2022-08-19T13:51:54.174Z,97339.38
2022-08-19T13:54:23.675Z,97344.97
2022-08-19T13:56:53.328Z,97345.16
2022-08-19T13:59:22.304Z,97343.63
2022-08-19T14:01:51.940Z,97352.09
2022-08-19T14:04:21.491Z,97359.75
2022-08-19T14:06:51.106Z,97359.91
2022-08-19T14:09:20.069Z,97365.22
2022-08-19T14:11:49.578Z,97359.75
2022-08-19T14:14:18.628Z,97366.03
2022-08-19T14:16:48.235Z,97374.00
2022-08-19T14:19:17.318Z,97372.00
2022-08-19T14:21:46.513Z,97369.81
2022-08-19T14:24:15.620Z,97369.50
2022-08-19T14:26:44.676Z,97369.34
2022-08-19T14:29:14.694Z,97361.38
2022-08-19T14:31:45.451Z,97365.53
2022-08-19T14:34:15.379Z,97365.34
2022-08-19T14:36:44.610Z,97361.91
2022-08-19T14:39:14.997Z,97365.16
2022-08-19T14:41:44.664Z,97368.81
2022-08-19T14:44:17.617Z,97377.97
2022-08-19T14:46:49.666Z,97372.97
2022-08-19T14:49:20.504Z,97381.31
2022-08-19T14:51:58.800Z,97380.16
2022-08-19T14:54:28.407Z,97381.84
2022-08-19T14:56:59.717Z,97380.03
2022-08-19T14:59:29.018Z,97391.00
2022-08-19T15:01:58.018Z,97380.81
2022-08-19T15:04:29.681Z,97381.13
2022-08-19T15:07:01.611Z,97395.75
2022-08-19T15:09:30.522Z,97392.06
2022-08-19T15:12:01.540Z,97392.06
2022-08-19T15:14:37.243Z,97403.38
2022-08-19T15:17:09.060Z,97401.28
2022-08-19T15:19:38.235Z,97409.63
2022-08-19T15:22:07.303Z,97407.53
2022-08-19T15:24:38.184Z,97411.09
2022-08-19T15:27:17.273Z,97408.50
2022-08-19T15:29:47.445Z,97405.16
2022-08-19T15:32:16.575Z,97411.22
2022-08-19T15:34:46.297Z,97419.03
2022-08-19T15:37:15.758Z,97427.50
2022-08-19T15:39:44.752Z,97429.31
2022-08-19T15:42:14.828Z,97436.94
2022-08-19T15:45:01.431Z,97451.13
2022-08-19T15:47:35.283Z,97452.78
2022-08-19T15:50:16.026Z,97467.91
2022-08-19T15:53:09.332Z,97469.59
2022-08-19T15:55:48.096Z,97464.94
2022-08-19T15:58:35.798Z,97462.88
2022-08-19T16:01:27.746Z,97469.38
2022-08-19T16:04:17.323Z,97470.81
2022-08-19T16:06:49.674Z,97467.84
2022-08-19T16:09:24.952Z,97477.41
2022-08-19T16:12:03.087Z,97481.59
2022-08-19T16:14:34.840Z,97484.88
2022-08-19T16:17:04.523Z,97485.41
2022-08-19T16:19:34.260Z,97490.94
2022-08-19T16:22:03.687Z,97503.56
2022-08-19T16:24:34.752Z,97510.53
2022-08-19T16:27:04.616Z,97519.84
2022-08-19T16:29:39.327Z,97521.13
2022-08-19T16:32:12.590Z,97529.84
2022-08-19T16:34:42.727Z,97528.25
2022-08-19T16:37:12.254Z,97529.25
2022-08-19T16:39:43.741Z,97528.78
2022-08-19T16:42:13.462Z,97526.97
2022-08-19T16:44:46.661Z,97533.34
2022-08-19T16:47:17.527Z,97532.25
2022-08-19T16:49:53.328Z,97531.59
2022-08-19T16:52:28.007Z,97536.50
2022-08-19T16:54:58.508Z,97539.09
2022-08-19T16:57:27.772Z,97540.38
2022-08-19T16:59:56.879Z,97541.88
2022-08-19T17:02:29.721Z,97541.06
2022-08-19T17:05:01.664Z,97540.97
2022-08-19T17:07:33.616Z,97534.91
2022-08-19T17:10:06.890Z,97521.13
2022-08-19T17:12:36.072Z,97527.59
2022-08-19T17:15:09.478Z,97535.09
2022-08-19T17:17:38.432Z,97531.75
2022-08-19T17:20:08.850Z,97531.69
2022-08-19T17:22:38.541Z,97533.06
2022-08-19T17:25:08.887Z,97539.53
2022-08-19T17:27:38.574Z,97540.28
2022-08-19T17:30:08.327Z,97533.94
2022-08-19T17:32:37.391Z,97526.38
2022-08-19T17:35:06.771Z,97521.78
2022-08-19T17:37:37.931Z,97517.00
2022-08-19T17:40:10.975Z,97523.34
2022-08-19T17:42:41.581Z,97518.66
2022-08-19T17:45:12.591Z,97508.63
2022-08-19T17:47:42.434Z,97510.25
2022-08-19T17:50:14.273Z,97509.66
2022-08-19T17:52:45.414Z,97505.81
2022-08-19T17:55:14.473Z,97503.28
2022-08-19T17:57:46.801Z,97497.97
2022-08-19T18:00:17.728Z,97504.63
2022-08-19T18:02:56.654Z,97505.50
2022-08-19T18:05:30.625Z,97503.34
2022-08-19T18:08:01.188Z,97499.41
2022-08-19T18:10:35.090Z,97487.66
2022-08-19T18:13:17.447Z,97501.66
2022-08-19T18:15:48.348Z,97496.50
2022-08-19T18:18:17.944Z,97500.41
2022-08-19T18:20:47.167Z,97504.56
2022-08-19T18:23:43.955Z,97492.13
2022-08-19T18:26:06.183Z,97496.06
2022-08-19T18:28:35.576Z,97499.31
2022-08-19T18:31:05.500Z,97499.09
2022-08-19T18:33:36.129Z,97499.53
2022-08-19T18:36:13.429Z,97506.25
2022-08-19T18:39:05.070Z,97514.97
2022-08-19T18:41:54.213Z,97505.47
2022-08-19T18:44:41.991Z,97514.13
2022-08-19T18:47:29.221Z,97512.16
2022-08-19T18:49:58.285Z,97511.50
2022-08-19T18:52:28.865Z,97506.16
2022-08-19T18:54:58.079Z,97502.34
2022-08-19T18:57:27.434Z,97505.41
2022-08-19T18:59:57.635Z,97509.88
2022-08-19T19:02:28.090Z,97510.59
2022-08-19T19:04:57.331Z,97512.28
2022-08-19T19:07:27.335Z,97513.41
2022-08-19T19:09:57.353Z,97509.66
2022-08-19T19:12:30.367Z,97508.19
2022-08-19T19:15:00.076Z,97507.81
2022-08-19T19:17:29.251Z,97509.53
2022-08-19T19:19:58.942Z,97503.06
2022-08-19T19:22:28.482Z,97501.81
2022-08-19T19:24:57.572Z,97501.72
2022-08-19T19:27:27.061Z,97508.41
2022-08-19T19:29:56.696Z,97504.66
2022-08-19T19:32:30.580Z,97508.78
2022-08-19T19:35:00.564Z,97511.88
2022-08-19T19:37:30.062Z,97509.53
2022-08-19T19:39:59.163Z,97508.53
2022-08-19T19:42:28.863Z,97506.44
2022-08-19T19:44:58.157Z,97505.34
2022-08-19T19:47:29.360Z,97514.84
2022-08-19T19:50:13.869Z,97513.63
2022-08-19T19:52:46.877Z,97505.75
2022-08-19T19:55:19.325Z,97509.00
2022-08-19T19:57:49.935Z,97509.00
2022-08-19T20:00:19.940Z,97513.19
2022-08-19T20:02:51.101Z,97512.78
2022-08-19T20:05:23.960Z,97507.91
2022-08-19T20:08:13.731Z,97502.78
2022-08-19T20:10:44.602Z,97511.81
2022-08-19T20:13:16.530Z,97502.63
2022-08-19T20:15:46.594Z,97502.19
2022-08-19T20:18:16.591Z,97497.06
2022-08-19T20:20:51.066Z,97490.66
2022-08-19T20:23:23.269Z,97486.75
2022-08-19T20:25:53.053Z,97494.56
2022-08-19T20:28:24.008Z,97482.91
2022-08-19T20:30:54.995Z,97486.25
2022-08-19T20:33:24.235Z,97481.56
2022-08-19T20:35:53.470Z,97482.34
2022-08-19T20:38:22.678Z,97488.91
2022-08-19T20:40:54.061Z,97482.22
2022-08-19T20:43:23.061Z,97483.06
2022-08-19T20:45:52.725Z,97485.03
2022-08-19T20:48:21.551Z,97472.91
2022-08-19T20:50:53.349Z,97472.56
2022-08-19T20:53:24.722Z,97475.72
2022-08-19T20:55:55.487Z,97473.16
2022-08-19T20:58:29.096Z,97468.22
2022-08-19T21:01:01.353Z,97475.59
2022-08-19T21:03:31.840Z,97469.25
2022-08-19T21:06:01.009Z,97472.41
2022-08-19T21:08:30.899Z,97468.53
2022-08-19T21:11:00.294Z,97461.53
2022-08-19T21:13:29.760Z,97456.97
2022-08-19T21:15:58.785Z,97453.91
2022-08-19T21:18:28.586Z,97451.25
2022-08-19T21:20:58.121Z,97455.16
2022-08-19T21:23:30.537Z,97458.06
2022-08-19T21:26:01.593Z,97448.19
2022-08-19T21:28:36.045Z,97463.84
2022-08-19T21:31:08.431Z,97451.81
2022-08-19T21:33:38.760Z,97442.38
2022-08-19T21:36:08.249Z,97441.38
2022-08-19T21:38:38.506Z,97437.41
2022-08-19T21:41:08.098Z,97436.41
2022-08-19T21:43:38.963Z,97437.72
2022-08-19T21:46:08.705Z,97441.31
2022-08-19T21:48:38.082Z,97441.81
2022-08-19T21:51:07.420Z,97448.81
2022-08-19T21:53:38.249Z,97452.19
2022-08-19T21:56:08.004Z,97454.13
2022-08-19T21:58:41.452Z,97446.63
2022-08-19T22:01:10.495Z,97448.16
2022-08-19T22:03:40.516Z,97448.50
2022-08-19T22:06:10.613Z,97450.88
2022-08-19T22:08:40.277Z,97465.50
2022-08-19T22:11:09.448Z,97461.31
2022-08-19T22:13:41.345Z,97469.13
2022-08-19T22:16:11.768Z,97472.47
2022-08-19T22:18:40.998Z,97477.22
2022-08-19T22:21:12.088Z,97471.06
2022-08-19T22:23:42.898Z,97469.97
2022-08-19T22:26:13.515Z,97479.44
2022-08-19T22:28:43.647Z,97471.53
2022-08-19T22:31:13.203Z,97470.69
2022-08-19T22:33:42.509Z,97467.34
2022-08-19T22:36:11.894Z,97475.53
2022-08-19T22:38:41.002Z,97466.13
2022-08-19T22:41:09.703Z,97474.72
2022-08-19T22:43:38.903Z,97472.94
2022-08-19T22:46:17.155Z,97480.59
2022-08-19T22:48:47.871Z,97483.09
2022-08-19T22:51:40.629Z,97483.09
2022-08-19T22:54:10.084Z,97484.88
2022-08-19T22:56:38.975Z,97480.31
2022-08-19T22:59:09.431Z,97483.38
2022-08-19T23:01:38.620Z,97476.94
2022-08-19T23:04:07.483Z,97484.75
2022-08-19T23:06:40.272Z,97484.94
2022-08-19T23:09:16.783Z,97490.47
2022-08-19T23:11:47.101Z,97494.91
2022-08-19T23:14:17.079Z,97495.31
2022-08-19T23:16:50.974Z,97494.94
2022-08-19T23:19:21.638Z,97493.94
2022-08-19T23:21:51.118Z,97494.78
2022-08-19T23:24:20.288Z,97485.47
2022-08-19T23:27:07.921Z,97481.56
2022-08-19T23:29:55.469Z,97490.88
2022-08-19T23:32:26.623Z,97493.81
2022-08-19T23:34:57.517Z,97500.75
2022-08-19T23:37:28.958Z,97502.97
2022-08-19T23:39:57.700Z,97498.13
2022-08-19T23:42:30.205Z,97509.63
2022-08-19T23:45:08.123Z,97506.19
2022-08-19T23:47:41.514Z,97514.25
2022-08-19T23:50:11.788Z,97517.00
2022-08-19T23:52:49.891Z,97521.31
2022-08-19T23:55:21.904Z,97522.28
2022-08-19T23:57:51.581Z,97521.72
